Time;durP1;ratioP1;P1;durP2;ratioP2;P2;SDS_P1;SDS_P2;PMS_P1;PMS_P2;Temp;Humidity;BMP_temperature;BMP_pressure;BME280_temperature;BME280_humidity;BME280_pressure;Samples;Min_cycle;Max_cycle;Signal;HPM_P1;HPM_P2
2023/03/16 00:02:11;;;;;;;9.40;5.30;;;5.60;99.90;;;;;;7393194;19;20171;-74
2023/03/16 00:04:37;;;;;;;8.20;5.20;;;4.70;99.90;;;;;;7389890;19;20167;-75
2023/03/16 00:07:05;;;;;;;8.57;5.03;;;4.40;99.90;;;;;;7392387;19;20198;-75
2023/03/16 00:09:31;;;;;;;7.47;5.13;;;4.70;99.90;;;;;;7390660;19;20150;-74
2023/03/16 00:11:58;;;;;;;7.30;5.47;;;5.10;99.90;;;;;;7392599;19;20177;-74
2023/03/16 00:14:24;;;;;;;7.73;5.23;;;5.00;99.90;;;;;;7391532;19;20151;-74
2023/03/16 00:16:50;;;;;;;10.53;5.53;;;5.10;99.90;;;;;;7391188;19;20169;-74
2023/03/16 00:19:16;;;;;;;8.87;5.27;;;5.20;99.90;;;;;;7392579;19;20127;-74
2023/03/16 00:21:42;;;;;;;7.80;5.07;;;5.10;99.90;;;;;;7395072;19;20127;-74
2023/03/16 00:24:07;;;;;;;7.47;5.23;;;5.20;99.90;;;;;;7391492;19;20567;-75
2023/03/16 00:26:33;;;;;;;9.67;5.50;;;5.20;99.90;;;;;;7391333;19;20142;-74
2023/03/16 00:29:00;;;;;;;8.77;5.23;;;5.40;99.90;;;;;;7392459;19;20475;-74
2023/03/16 00:31:26;;;;;;;9.07;5.93;;;5.40;99.90;;;;;;7387082;19;20448;-75
2023/03/16 00:33:52;;;;;;;8.70;6.13;;;5.40;99.90;;;;;;7392509;19;20135;-74
2023/03/16 00:36:18;;;;;;;8.90;5.73;;;5.50;99.90;;;;;;7391038;19;20235;-73
2023/03/16 00:38:48;;;;;;;7.93;6.23;;;5.50;99.90;;;;;;7392180;19;20146;-75
2023/03/16 00:41:15;;;;;;;10.67;5.93;;;5.20;99.90;;;;;;7392077;19;20127;-74
2023/03/16 00:43:44;;;;;;;7.70;5.53;;;5.30;99.90;;;;;;7391598;19;20146;-74
2023/03/16 00:46:15;;;;;;;7.13;4.90;;;5.10;99.90;;;;;;7393146;19;20127;-74
2023/03/16 00:48:43;;;;;;;7.80;5.20;;;5.20;99.90;;;;;;7391825;19;20194;-76
2023/03/16 00:51:14;;;;;;;10.07;5.97;;;5.10;99.90;;;;;;7387125;19;21080;-75
2023/03/16 00:53:42;;;;;;;7.33;5.27;;;5.20;99.90;;;;;;7393417;19;20598;-75
2023/03/16 00:56:08;;;;;;;8.00;5.20;;;5.30;99.90;;;;;;7392877;19;20217;-75
2023/03/16 00:58:37;;;;;;;9.17;5.60;;;5.30;99.90;;;;;;7391163;19;20490;-75
2023/03/16 01:01:04;;;;;;;8.63;5.60;;;5.30;99.90;;;;;;7391602;19;20767;-74
2023/03/16 01:03:30;;;;;;;8.30;5.80;;;5.20;99.90;;;;;;7389148;19;20525;-74
2023/03/16 01:05:58;;;;;;;9.07;5.73;;;5.20;99.90;;;;;;7391003;19;20138;-75
2023/03/16 01:08:28;;;;;;;11.57;6.37;;;5.20;99.90;;;;;;7389332;19;20151;-74
2023/03/16 01:10:54;;;;;;;10.63;6.07;;;5.10;99.90;;;;;;7387979;19;20170;-73
2023/03/16 01:13:21;;;;;;;8.30;6.47;;;5.10;99.90;;;;;;7388792;19;20142;-75
2023/03/16 01:15:50;;;;;;;7.37;5.27;;;5.10;99.90;;;;;;7392028;19;20137;-74
2023/03/16 01:18:15;;;;;;;8.10;5.87;;;5.20;99.90;;;;;;7385212;19;20147;-73
2023/03/16 01:20:49;;;;;;;8.33;5.47;;;5.00;99.90;;;;;;7392697;19;20145;-73
2023/03/16 01:23:18;;;;;;;8.67;5.40;;;5.10;99.90;;;;;;7389424;19;20162;-73
2023/03/16 01:25:51;;;;;;;11.07;5.77;;;5.10;99.90;;;;;;7390663;19;20147;-75
2023/03/16 01:28:25;;;;;;;7.00;5.37;;;5.10;99.90;;;;;;7391283;19;20166;-75
2023/03/16 01:30:53;;;;;;;7.23;5.33;;;4.90;99.90;;;;;;7388079;19;20146;-75
2023/03/16 01:33:23;;;;;;;8.60;5.77;;;4.50;99.90;;;;;;7389350;19;20175;-74
2023/03/16 01:36:09;;;;;;;8.53;5.53;;;4.40;99.90;;;;;;7391818;19;20149;-75
2023/03/16 01:38:35;;;;;;;8.00;5.50;;;4.70;99.90;;;;;;7387897;19;20146;-75
2023/03/16 01:41:02;;;;;;;7.80;5.50;;;4.90;99.90;;;;;;7389860;19;20270;-75
2023/03/16 01:43:33;;;;;;;7.57;5.63;;;4.80;99.90;;;;;;7388383;19;20159;-75
2023/03/16 01:46:05;;;;;;;10.03;6.30;;;4.90;99.90;;;;;;7390019;19;20146;-75
2023/03/16 01:48:46;;;;;;;11.13;6.10;;;5.00;99.90;;;;;;7390899;19;20146;-75
2023/03/16 01:51:20;;;;;;;7.97;5.53;;;5.10;99.90;;;;;;7388033;19;20206;-75
2023/03/16 01:53:51;;;;;;;9.03;5.50;;;5.20;99.90;;;;;;7390505;19;20630;-74
2023/03/16 01:56:24;;;;;;;9.03;5.60;;;5.20;99.90;;;;;;7389031;19;20138;-76
2023/03/16 01:58:57;;;;;;;8.93;6.37;;;5.20;99.90;;;;;;7390325;19;20558;-75
2023/03/16 02:01:26;;;;;;;11.50;6.37;;;5.20;99.90;;;;;;7386452;19;20166;-75
2023/03/16 02:03:56;;;;;;;6.83;5.40;;;5.10;99.90;;;;;;7387172;19;20526;-75
2023/03/16 02:06:22;;;;;;;6.80;5.43;;;5.00;99.90;;;;;;7382316;19;20158;-76
2023/03/16 02:08:49;;;;;;;8.37;6.23;;;5.00;99.90;;;;;;7388963;19;20583;-74
2023/03/16 02:11:21;;;;;;;10.50;5.90;;;5.00;99.90;;;;;;7388559;19;20119;-76
2023/03/16 02:13:48;;;;;;;6.43;5.63;;;5.00;99.90;;;;;;7389487;19;20135;-74
2023/03/16 02:16:18;;;;;;;8.63;6.30;;;4.80;99.90;;;;;;7390221;19;20146;-75
2023/03/16 02:18:46;;;;;;;11.83;6.37;;;4.90;99.90;;;;;;7387284;19;20190;-75
2023/03/16 02:21:54;;;;;;;9.87;6.50;;;4.90;99.90;;;;;;7388725;19;20160;-75
2023/03/16 02:24:20;;;;;;;9.20;6.00;;;5.00;99.90;;;;;;7389919;19;20158;-75
2023/03/16 02:27:13;;;;;;;9.50;6.53;;;5.00;99.90;;;;;;7388399;19;20449;-75
2023/03/16 02:29:51;;;;;;;9.17;6.20;;;5.00;99.90;;;;;;7385984;19;20147;-74
2023/03/16 02:32:18;;;;;;;9.37;6.20;;;5.00;99.90;;;;;;7386547;19;20518;-75
2023/03/16 02:34:44;;;;;;;7.37;5.57;;;4.80;99.90;;;;;;7386955;19;20226;-75
2023/03/16 02:37:10;;;;;;;8.77;5.83;;;4.80;99.90;;;;;;7386118;19;20146;-75
2023/03/16 02:39:37;;;;;;;9.33;6.63;;;4.60;99.90;;;;;;7387756;19;20147;-76
2023/03/16 02:42:04;;;;;;;9.20;5.67;;;4.50;99.90;;;;;;7388813;19;20466;-74
2023/03/16 02:44:33;;;;;;;8.87;5.93;;;4.70;99.90;;;;;;7388903;19;20246;-74
2023/03/16 02:47:04;;;;;;;9.13;5.93;;;4.80;99.90;;;;;;7387129;19;20260;-74
2023/03/16 02:49:37;;;;;;;9.67;6.07;;;4.70;99.90;;;;;;7387332;19;20146;-75
2023/03/16 02:52:04;;;;;;;7.27;5.13;;;4.60;99.90;;;;;;7384235;19;20150;-75
2023/03/16 02:54:30;;;;;;;7.60;5.67;;;4.70;99.90;;;;;;7382203;19;20134;-74
2023/03/16 02:56:56;;;;;;;9.13;6.47;;;4.80;99.90;;;;;;7386856;19;20126;-74
2023/03/16 02:59:22;;;;;;;7.77;5.97;;;4.90;99.90;;;;;;7389252;19;20161;-74
2023/03/16 03:01:47;;;;;;;8.23;5.93;;;4.80;99.90;;;;;;7385025;19;20174;-74
2023/03/16 03:04:13;;;;;;;8.67;5.93;;;4.90;99.90;;;;;;7388921;19;20150;-74
2023/03/16 03:06:40;;;;;;;8.40;6.70;;;4.70;99.90;;;;;;7386006;19;20138;-74
2023/03/16 03:09:06;;;;;;;10.50;6.80;;;4.80;99.90;;;;;;7389017;19;20210;-74
2023/03/16 03:11:32;;;;;;;10.33;6.87;;;4.90;99.90;;;;;;7384399;19;20151;-74
2023/03/16 03:13:58;;;;;;;10.50;6.83;;;4.90;99.90;;;;;;7390247;19;20164;-74
2023/03/16 03:16:24;;;;;;;10.10;7.00;;;4.90;99.90;;;;;;7387271;19;20309;-74
2023/03/16 03:18:51;;;;;;;10.03;7.37;;;4.90;99.90;;;;;;7387022;19;20151;-75
2023/03/16 03:21:17;;;;;;;11.03;7.27;;;4.80;99.90;;;;;;7384258;19;20146;-74
2023/03/16 03:23:45;;;;;;;9.93;7.00;;;4.80;99.90;;;;;;7389364;19;20165;-74
2023/03/16 03:26:13;;;;;;;10.13;7.40;;;4.70;99.90;;;;;;7387761;19;20158;-75
2023/03/16 03:28:39;;;;;;;12.57;7.37;;;4.70;99.90;;;;;;7385394;19;20154;-74
2023/03/16 03:31:11;;;;;;;10.70;6.87;;;4.70;99.90;;;;;;7384896;19;20143;-74
2023/03/16 03:33:37;;;;;;;9.07;6.73;;;4.30;99.90;;;;;;7386058;19;20159;-74
2023/03/16 03:36:03;;;;;;;10.97;7.20;;;4.10;99.90;;;;;;7384843;19;20154;-75
2023/03/16 03:38:29;;;;;;;9.87;6.70;;;3.90;99.90;;;;;;7385581;19;20946;-75
2023/03/16 03:40:58;;;;;;;8.87;6.93;;;4.00;99.90;;;;;;7384737;19;20139;-75
2023/03/16 03:43:24;;;;;;;8.77;6.20;;;4.20;99.90;;;;;;7385180;19;20142;-74
2023/03/16 03:45:56;;;;;;;9.90;6.73;;;4.30;99.90;;;;;;7385707;19;20145;-75
2023/03/16 03:48:22;;;;;;;9.53;6.37;;;3.90;99.90;;;;;;7384285;19;20168;-74
2023/03/16 03:50:48;;;;;;;8.73;6.37;;;4.20;99.90;;;;;;7382995;19;20170;-75
2023/03/16 03:53:14;;;;;;;9.83;6.53;;;4.50;99.90;;;;;;7388323;19;20139;-74
2023/03/16 03:55:40;;;;;;;8.73;5.90;;;4.40;99.90;;;;;;7387328;19;20546;-75
2023/03/16 03:58:05;;;;;;;8.97;6.30;;;4.60;99.90;;;;;;7385167;19;20179;-74
2023/03/16 04:00:31;;;;;;;7.83;5.67;;;4.50;99.90;;;;;;7387490;19;20139;-74
2023/03/16 04:02:57;;;;;;;10.67;6.43;;;4.60;99.90;;;;;;7384815;19;20150;-75
2023/03/16 04:05:26;;;;;;;7.43;5.73;;;4.40;99.90;;;;;;7383679;19;20254;-74
2023/03/16 04:07:56;;;;;;;7.83;5.80;;;4.40;99.90;;;;;;7391977;19;20592;-75
2023/03/16 04:10:27;;;;;;;8.73;6.60;;;4.70;99.90;;;;;;7391247;19;20150;-74
2023/03/16 04:12:54;;;;;;;9.77;5.73;;;4.90;99.90;;;;;;7395242;19;20170;-74
2023/03/16 04:15:21;;;;;;;10.10;5.90;;;4.70;99.90;;;;;;7391993;19;20123;-74
2023/03/16 04:17:47;;;;;;;7.20;6.30;;;4.60;99.90;;;;;;7390613;19;20134;-75
2023/03/16 04:20:17;;;;;;;9.33;6.47;;;4.60;99.90;;;;;;7392185;19;20150;-74
2023/03/16 04:22:47;;;;;;;11.17;7.60;;;4.60;99.90;;;;;;7390397;19;20490;-74
2023/03/16 04:25:15;;;;;;;10.03;7.67;;;4.60;99.90;;;;;;7393359;19;20840;-75
2023/03/16 04:27:41;;;;;;;10.33;7.53;;;4.70;99.90;;;;;;7390700;19;20590;-74
2023/03/16 04:30:11;;;;;;;8.13;6.73;;;4.70;99.90;;;;;;7391457;19;20655;-75
2023/03/16 04:32:37;;;;;;;9.27;6.90;;;4.80;99.90;;;;;;7389354;19;20139;-75
2023/03/16 04:35:04;;;;;;;9.47;7.57;;;4.70;99.90;;;;;;7388555;19;20928;-74
2023/03/16 04:37:29;;;;;;;8.77;6.77;;;4.70;99.90;;;;;;7388588;19;20138;-75
2023/03/16 04:39:55;;;;;;;9.83;7.10;;;4.70;99.90;;;;;;7391139;19;20136;-76
2023/03/16 04:42:21;;;;;;;9.63;6.93;;;4.60;99.90;;;;;;7390340;19;20143;-75
2023/03/16 04:44:47;;;;;;;8.43;6.67;;;4.60;99.90;;;;;;7392556;19;20163;-75
2023/03/16 04:47:15;;;;;;;10.70;7.57;;;4.60;99.90;;;;;;7391470;19;20479;-75
2023/03/16 04:49:41;;;;;;;9.87;6.77;;;4.60;99.90;;;;;;7390649;19;20139;-75
2023/03/16 04:52:08;;;;;;;8.80;6.80;;;4.60;99.90;;;;;;7392637;19;20127;-74
2023/03/16 04:54:34;;;;;;;10.13;7.53;;;4.60;99.90;;;;;;7392150;19;20155;-74
2023/03/16 04:57:02;;;;;;;9.73;7.37;;;4.60;99.90;;;;;;7390801;19;20139;-74
2023/03/16 04:59:28;;;;;;;12.90;7.97;;;4.60;99.90;;;;;;7390696;19;20150;-74
2023/03/16 05:01:54;;;;;;;10.43;7.63;;;4.70;99.90;;;;;;7390280;19;20143;-75
2023/03/16 05:04:20;;;;;;;10.40;7.87;;;4.70;99.90;;;;;;7392011;19;20153;-74
2023/03/16 05:06:47;;;;;;;10.80;7.67;;;4.80;99.90;;;;;;7391937;19;20135;-74
2023/03/16 05:09:13;;;;;;;10.70;7.40;;;4.80;99.90;;;;;;7389851;19;20447;-75
2023/03/16 05:11:39;;;;;;;10.13;7.57;;;4.70;99.90;;;;;;7389954;19;20139;-74
2023/03/16 05:14:05;;;;;;;9.70;7.57;;;4.70;99.90;;;;;;7390622;19;20154;-74
2023/03/16 05:16:31;;;;;;;11.73;7.97;;;4.70;99.90;;;;;;7387820;19;20477;-74
2023/03/16 05:18:58;;;;;;;9.57;7.50;;;4.70;99.90;;;;;;7390652;19;20143;-74
2023/03/16 05:21:24;;;;;;;10.53;7.57;;;4.70;99.90;;;;;;7391673;19;20927;-75
2023/03/16 05:23:50;;;;;;;9.07;6.80;;;4.70;99.90;;;;;;7389129;19;20153;-75
2023/03/16 05:26:17;;;;;;;9.90;7.50;;;4.60;99.90;;;;;;7389741;19;20131;-74
2023/03/16 05:28:43;;;;;;;11.77;7.73;;;4.60;99.90;;;;;;7390524;19;20139;-75
2023/03/16 05:31:09;;;;;;;9.97;7.10;;;4.60;99.90;;;;;;7383438;19;20139;-76
2023/03/16 05:33:35;;;;;;;12.20;8.10;;;4.70;99.90;;;;;;7389868;19;20144;-74
2023/03/16 05:36:01;;;;;;;8.73;6.67;;;4.60;99.90;;;;;;7389667;19;20556;-74
2023/03/16 05:38:28;;;;;;;10.30;7.80;;;4.60;99.90;;;;;;7391223;19;20151;-74
2023/03/16 05:40:54;;;;;;;10.50;7.63;;;4.60;99.90;;;;;;7387386;19;20150;-75
2023/03/16 05:43:21;;;;;;;10.00;7.30;;;4.70;99.90;;;;;;7388755;19;20147;-74
2023/03/16 05:45:47;;;;;;;10.83;7.93;;;4.70;99.90;;;;;;7389295;19;20141;-74
2023/03/16 05:48:16;;;;;;;10.53;7.53;;;4.70;99.90;;;;;;7390618;19;20139;-75
2023/03/16 05:50:42;;;;;;;11.70;7.67;;;4.70;99.90;;;;;;7389876;19;20146;-76
2023/03/16 05:53:08;;;;;;;12.03;7.60;;;4.70;99.90;;;;;;7390741;19;20679;-74
2023/03/16 05:55:34;;;;;;;9.57;6.90;;;4.70;99.90;;;;;;7390824;19;20139;-77
2023/03/16 05:57:59;;;;;;;10.73;7.50;;;4.70;99.90;;;;;;7388840;19;20226;-74
2023/03/16 06:00:26;;;;;;;8.83;6.37;;;4.70;99.90;;;;;;7392126;19;20149;-73
2023/03/16 06:02:52;;;;;;;9.63;6.57;;;4.70;99.90;;;;;;7387884;19;20146;-74
2023/03/16 06:05:20;;;;;;;11.13;7.43;;;4.70;99.90;;;;;;7389787;19;20210;-74
2023/03/16 06:07:47;;;;;;;12.03;7.60;;;4.70;99.90;;;;;;7388296;19;20138;-75
2023/03/16 06:10:13;;;;;;;10.73;7.53;;;4.80;99.90;;;;;;7389119;19;20174;-74
2023/03/16 06:12:42;;;;;;;11.33;7.20;;;4.70;99.90;;;;;;7389838;19;20142;-74
2023/03/16 06:15:09;;;;;;;10.73;7.70;;;4.70;99.90;;;;;;7388799;19;20134;-76
2023/03/16 06:17:36;;;;;;;10.50;7.83;;;4.70;99.90;;;;;;7390200;19;20142;-76
2023/03/16 06:20:10;;;;;;;9.70;6.80;;;4.90;99.90;;;;;;7390089;19;20552;-75
2023/03/16 06:22:40;;;;;;;11.03;7.93;;;4.70;99.90;;;;;;7389471;19;20630;-76
2023/03/16 06:25:07;;;;;;;10.87;7.40;;;4.30;99.90;;;;;;7389990;19;20575;-76
2023/03/16 06:27:33;;;;;;;12.67;8.07;;;4.50;99.90;;;;;;7388482;19;20158;-74
2023/03/16 06:29:59;;;;;;;15.07;10.13;;;4.70;99.90;;;;;;7386328;19;20501;-75
2023/03/16 06:32:24;;;;;;;14.77;9.30;;;4.70;99.90;;;;;;7385743;19;20154;-75
2023/03/16 06:34:50;;;;;;;12.30;9.40;;;4.70;99.90;;;;;;7388062;19;20146;-76
2023/03/16 06:37:16;;;;;;;13.07;9.40;;;4.70;99.90;;;;;;7384323;19;20149;-75
2023/03/16 06:39:43;;;;;;;16.17;9.10;;;4.60;99.90;;;;;;7388391;19;20150;-76
2023/03/16 06:42:09;;;;;;;13.97;9.17;;;4.70;99.90;;;;;;7389844;19;20152;-75
2023/03/16 06:44:38;;;;;;;15.47;9.47;;;4.70;99.90;;;;;;7387762;19;20158;-74
2023/03/16 06:47:04;;;;;;;15.20;9.73;;;4.80;99.90;;;;;;7389674;19;20202;-75
2023/03/16 06:49:30;;;;;;;14.10;9.70;;;4.80;99.90;;;;;;7389701;19;20144;-76
2023/03/16 06:51:57;;;;;;;12.83;8.77;;;4.90;99.90;;;;;;7386684;19;20158;-77
2023/03/16 06:54:33;;;;;;;14.67;9.60;;;4.90;99.90;;;;;;7387572;19;20171;-76
2023/03/16 06:57:01;;;;;;;12.70;8.77;;;4.90;99.90;;;;;;7389261;19;20152;-76
2023/03/16 06:59:28;;;;;;;14.10;10.00;;;4.90;99.90;;;;;;7385339;19;20611;-77
2023/03/16 07:01:53;;;;;;;15.77;9.80;;;4.90;99.90;;;;;;7388878;19;20454;-76
2023/03/16 07:04:19;;;;;;;13.30;9.63;;;4.70;99.90;;;;;;7386073;19;20153;-76
2023/03/16 07:06:45;;;;;;;12.33;8.23;;;4.90;99.90;;;;;;7389952;19;20144;-75
2023/03/16 07:09:11;;;;;;;13.27;8.47;;;4.90;99.90;;;;;;7388140;19;20142;-75
2023/03/16 07:11:37;;;;;;;12.40;8.40;;;4.90;99.90;;;;;;7385282;19;20155;-75
2023/03/16 07:14:03;;;;;;;11.17;8.20;;;5.00;99.90;;;;;;7385938;19;20146;-76
2023/03/16 07:16:30;;;;;;;12.87;8.73;;;5.00;99.90;;;;;;7384997;19;20741;-75
2023/03/16 07:18:56;;;;;;;12.50;8.33;;;4.90;99.90;;;;;;7383775;19;20502;-75
2023/03/16 07:21:22;;;;;;;12.07;8.60;;;4.90;99.90;;;;;;7386471;19;20142;-75
2023/03/16 07:23:48;;;;;;;12.70;8.77;;;4.90;99.90;;;;;;7388664;19;20147;-75
2023/03/16 07:26:14;;;;;;;14.43;8.17;;;5.10;99.90;;;;;;7384383;19;20155;-74
2023/03/16 07:28:40;;;;;;;16.10;10.10;;;5.10;99.90;;;;;;7385128;19;20744;-76
2023/03/16 07:31:06;;;;;;;14.87;8.50;;;5.30;99.90;;;;;;7383062;19;20152;-76
2023/03/16 07:33:33;;;;;;;12.10;8.13;;;4.90;99.90;;;;;;7385429;19;20147;-75
2023/03/16 07:36:03;;;;;;;15.33;8.83;;;4.90;99.90;;;;;;7386285;19;20214;-75
2023/03/16 07:38:29;;;;;;;12.93;8.83;;;5.10;99.90;;;;;;7384734;19;20131;-76
2023/03/16 07:40:57;;;;;;;12.97;8.13;;;5.20;99.90;;;;;;7389474;19;20697;-75
2023/03/16 07:43:25;;;;;;;13.27;8.83;;;5.40;99.90;;;;;;7394792;19;20206;-75
2023/03/16 07:45:52;;;;;;;12.80;8.53;;;5.50;99.90;;;;;;7390742;19;20165;-74
2023/03/16 07:48:18;;;;;;;12.83;8.70;;;5.40;99.90;;;;;;7394312;19;20143;-74
2023/03/16 07:50:47;;;;;;;12.20;8.37;;;5.30;99.90;;;;;;7392838;19;20138;-75
2023/03/16 07:53:14;;;;;;;11.77;8.40;;;5.40;99.90;;;;;;7396828;19;20552;-74
2023/03/16 07:55:42;;;;;;;12.53;8.83;;;5.50;99.90;;;;;;7394729;19;20210;-74
2023/03/16 07:58:11;;;;;;;13.87;9.23;;;5.50;99.90;;;;;;7394778;19;20158;-75
2023/03/16 08:00:41;;;;;;;13.40;8.47;;;5.50;99.90;;;;;;7393903;19;20146;-75
2023/03/16 08:03:07;;;;;;;14.07;8.80;;;5.60;99.90;;;;;;7393355;19;20263;-75
2023/03/16 08:05:33;;;;;;;13.57;8.60;;;5.80;99.90;;;;;;7393577;19;20145;-77
2023/03/16 08:08:00;;;;;;;12.70;8.53;;;5.90;99.90;;;;;;7394001;19;20202;-75
2023/03/16 08:10:26;;;;;;;11.07;8.27;;;6.00;99.90;;;;;;7390343;19;20139;-75
2023/03/16 08:12:52;;;;;;;13.63;8.57;;;6.00;99.90;;;;;;7393067;19;20181;-75
2023/03/16 08:15:18;;;;;;;13.17;7.40;;;5.60;99.90;;;;;;7396668;19;20587;-75
2023/03/16 08:17:44;;;;;;;11.70;7.60;;;5.30;99.90;;;;;;7394961;19;20926;-75
2023/03/16 08:20:13;;;;;;;10.60;7.43;;;5.40;99.90;;;;;;7394572;19;20154;-76
2023/03/16 08:22:45;;;;;;;11.97;7.90;;;5.60;99.90;;;;;;7394859;19;20163;-75
2023/03/16 08:25:11;;;;;;;11.03;7.30;;;5.80;99.90;;;;;;7394334;19;20158;-75
2023/03/16 08:27:37;;;;;;;11.73;7.63;;;5.90;99.90;;;;;;7392935;19;20146;-75
2023/03/16 08:30:10;;;;;;;11.77;7.60;;;6.10;99.90;;;;;;7393842;19;20142;-74
2023/03/16 08:32:38;;;;;;;12.37;6.73;;;6.30;99.90;;;;;;7393300;19;20707;-75
2023/03/16 08:35:05;;;;;;;13.53;7.13;;;6.20;99.90;;;;;;7394889;19;20143;-74
2023/03/16 08:37:31;;;;;;;9.70;6.57;;;6.20;99.90;;;;;;7394301;19;20159;-76
2023/03/16 08:39:59;;;;;;;15.40;6.83;;;6.20;99.90;;;;;;7395704;19;20147;-74
2023/03/16 08:42:25;;;;;;;6.50;4.50;;;6.20;99.90;;;;;;7401114;19;20165;-75
2023/03/16 08:44:53;;;;;;;7.97;4.50;;;6.50;99.90;;;;;;7397183;19;20345;-75
2023/03/16 08:47:23;;;;;;;6.07;4.23;;;6.70;99.90;;;;;;7395391;19;20178;-75
2023/03/16 08:49:49;;;;;;;7.27;4.17;;;6.90;99.90;;;;;;7392334;19;20138;-75
2023/03/16 08:52:15;;;;;;;6.77;3.63;;;7.10;99.90;;;;;;7387969;19;20139;-76
2023/03/16 08:54:42;;;;;;;7.83;3.90;;;7.30;99.90;;;;;;7393178;19;20379;-76
2023/03/16 08:57:09;;;;;;;4.77;3.37;;;7.50;99.90;;;;;;7392300;19;20138;-77
2023/03/16 08:59:35;;;;;;;6.20;3.83;;;7.60;99.90;;;;;;7393828;19;20230;-74
2023/03/16 09:02:03;;;;;;;7.23;4.07;;;7.80;99.90;;;;;;7394560;19;20155;-77
2023/03/16 09:04:29;;;;;;;5.27;3.63;;;8.00;99.90;;;;;;7389642;19;20167;-76
2023/03/16 09:06:57;;;;;;;7.53;4.40;;;8.00;99.90;;;;;;7391145;19;20142;-77
2023/03/16 09:09:23;;;;;;;12.27;7.97;;;8.00;99.90;;;;;;7395682;19;20158;-76
2023/03/16 09:11:49;;;;;;;8.13;5.60;;;8.10;99.90;;;;;;7389658;19;20223;-76
2023/03/16 09:14:15;;;;;;;5.50;3.80;;;8.40;99.90;;;;;;7390746;19;20568;-76
2023/03/16 09:16:41;;;;;;;5.93;3.83;;;8.60;99.90;;;;;;7391302;19;20174;-77
2023/03/16 09:19:06;;;;;;;5.23;3.73;;;8.80;99.90;;;;;;7394370;19;20145;-77
2023/03/16 09:21:35;;;;;;;5.37;3.83;;;9.00;99.90;;;;;;7389965;19;20177;-76
2023/03/16 09:24:01;;;;;;;4.93;3.73;;;9.10;99.90;;;;;;7399210;19;20172;-76
2023/03/16 09:26:27;;;;;;;6.17;3.23;;;9.20;99.90;;;;;;7391048;19;20178;-75
2023/03/16 09:28:54;;;;;;;4.40;3.30;;;9.30;99.90;;;;;;7398548;19;20143;-76
2023/03/16 09:31:21;;;;;;;4.70;3.43;;;9.40;99.90;;;;;;7389115;19;20146;-76
2023/03/16 09:33:47;;;;;;;6.07;3.67;;;9.60;99.90;;;;;;7391617;19;20138;-77
2023/03/16 09:36:13;;;;;;;6.27;3.67;;;9.70;99.90;;;;;;7390581;19;20166;-76
2023/03/16 09:38:41;;;;;;;5.00;3.33;;;9.80;99.90;;;;;;7391229;19;20629;-76
2023/03/16 09:41:32;;;;;;;4.47;2.87;;;9.90;99.90;;;;;;7389227;19;20135;-77
2023/03/16 09:44:04;;;;;;;5.00;3.40;;;10.00;99.90;;;;;;7397106;19;20141;-74
2023/03/16 09:46:42;;;;;;;6.47;4.00;;;10.10;99.90;;;;;;7393632;19;20151;-76
2023/03/16 09:49:15;;;;;;;5.00;3.80;;;10.20;99.90;;;;;;7390268;19;20167;-77
2023/03/16 09:52:03;;;;;;;5.20;3.20;;;10.20;99.90;;;;;;7387131;19;20512;-75
2023/03/16 09:54:39;;;;;;;5.23;3.67;;;10.00;99.90;;;;;;7389094;19;20154;-77
2023/03/16 09:57:19;;;;;;;5.23;3.43;;;9.90;99.90;;;;;;7391267;19;20154;-77
2023/03/16 09:59:52;;;;;;;4.50;3.03;;;10.20;99.90;;;;;;7389401;19;20150;-77
2023/03/16 10:02:49;;;;;;;6.33;3.30;;;10.40;99.90;;;;;;7389709;19;20126;-76
2023/03/16 10:05:20;;;;;;;4.60;2.97;;;10.50;99.90;;;;;;7397963;19;20197;-75
2023/03/16 10:08:20;;;;;;;4.57;2.97;;;10.40;99.90;;;;;;7395572;19;20134;-75
2023/03/16 10:11:25;;;;;;;3.57;2.93;;;10.40;99.90;;;;;;7388081;19;20242;-75
2023/03/16 10:14:04;;;;;;;4.80;2.80;;;10.40;99.90;;;;;;7387502;19;20138;-76
2023/03/16 10:16:42;;;;;;;4.97;3.13;;;10.60;99.90;;;;;;7389489;19;20149;-76
2023/03/16 10:19:33;;;;;;;5.43;2.73;;;10.70;99.90;;;;;;7389298;19;20214;-75
2023/03/16 10:22:08;;;;;;;3.30;2.47;;;10.50;99.90;;;;;;7390676;19;20517;-76
2023/03/16 10:24:55;;;;;;;4.07;3.30;;;10.30;99.90;;;;;;7389073;19;20141;-75
2023/03/16 10:27:29;;;;;;;5.30;3.00;;;10.30;99.90;;;;;;7391481;19;20147;-78
2023/03/16 10:29:55;;;;;;;3.47;2.73;;;10.50;99.90;;;;;;7396804;19;20134;-75
2023/03/16 10:32:27;;;;;;;4.67;3.00;;;10.60;99.90;;;;;;7393109;19;20139;-77
2023/03/16 10:35:03;;;;;;;5.30;3.20;;;10.70;99.90;;;;;;7391710;19;20605;-76
2023/03/16 10:37:30;;;;;;;4.53;2.90;;;10.70;99.90;;;;;;7387921;19;20162;-76
2023/03/16 10:39:56;;;;;;;4.40;2.60;;;10.80;99.90;;;;;;7390224;19;20142;-76
2023/03/16 10:42:23;;;;;;;3.50;2.70;;;10.90;99.90;;;;;;7389115;19;20150;-76
2023/03/16 10:44:56;;;;;;;5.53;2.80;;;11.00;99.90;;;;;;7389206;19;20154;-78
2023/03/16 10:47:27;;;;;;;5.03;2.70;;;11.00;99.90;;;;;;7390039;19;20150;-76
2023/03/16 10:49:55;;;;;;;6.50;2.40;;;10.90;99.90;;;;;;7388460;19;20293;-76
2023/03/16 10:52:42;;;;;;;4.83;2.83;;;10.80;99.90;;;;;;7387417;19;20170;-75
2023/03/16 10:55:10;;;;;;;2.83;2.50;;;11.00;99.90;;;;;;7389746;19;20706;-76
2023/03/16 10:57:41;;;;;;;5.33;2.67;;;11.10;99.90;;;;;;7387886;19;20143;-77
2023/03/16 11:00:12;;;;;;;3.93;2.23;;;11.20;99.90;;;;;;7389125;19;20658;-75
2023/03/16 11:02:39;;;;;;;3.97;2.30;;;11.00;99.90;;;;;;7387084;19;20147;-76
2023/03/16 11:05:18;;;;;;;3.60;2.20;;;11.20;99.90;;;;;;7392876;19;20205;-77
2023/03/16 11:07:48;;;;;;;3.60;2.60;;;11.20;99.90;;;;;;7388922;19;20146;-76
2023/03/16 11:10:32;;;;;;;2.63;2.30;;;11.30;99.90;;;;;;7389353;19;20155;-76
2023/03/16 11:13:17;;;;;;;4.50;2.50;;;11.30;99.90;;;;;;7388473;19;20134;-76
2023/03/16 11:16:00;;;;;;;3.73;2.23;;;11.40;99.90;;;;;;7390935;19;20157;-75
2023/03/16 11:18:33;;;;;;;3.40;2.00;;;11.40;99.90;;;;;;7394836;19;20150;-77
2023/03/16 11:21:06;;;;;;;5.60;3.07;;;11.50;99.90;;;;;;7397537;19;20139;-76
2023/03/16 11:23:36;;;;;;;2.63;2.07;;;11.70;99.90;;;;;;7397451;19;20148;-78
2023/03/16 11:26:09;;;;;;;4.60;2.10;;;11.80;99.90;;;;;;7388417;19;20174;-77
2023/03/16 11:28:48;;;;;;;4.67;2.53;;;11.60;99.90;;;;;;7394279;19;20142;-77
2023/03/16 11:31:32;;;;;;;2.70;2.05;;;11.60;99.90;;;;;;7386236;19;20134;-78
2023/03/16 11:34:02;;;;;;;4.67;2.20;;;11.70;99.90;;;;;;7390722;19;20515;-78
2023/03/16 11:36:43;;;;;;;1.73;1.53;;;11.90;99.90;;;;;;7393864;19;20145;-78
2023/03/16 11:39:11;;;;;;;3.30;2.03;;;11.90;99.90;;;;;;7396129;19;20189;-78
2023/03/16 11:41:47;;;;;;;3.27;1.90;;;11.80;99.90;;;;;;7394716;19;20131;-79
2023/03/16 11:44:20;;;;;;;5.23;2.60;;;12.00;99.90;;;;;;7394801;19;20146;-79
2023/03/16 11:46:58;;;;;;;2.53;2.13;;;12.20;99.90;;;;;;7394282;19;20154;-80
2023/03/16 11:49:41;;;;;;;2.73;2.07;;;12.20;99.90;;;;;;7398463;19;20133;-76
2023/03/16 11:52:49;;;;;;;5.87;2.20;;;12.20;99.90;;;;;;7395243;19;20642;-78
2023/03/16 11:55:28;;;;;;;2.33;1.90;;;12.00;99.90;;;;;;7396872;19;20135;-78
2023/03/16 11:57:59;;;;;;;4.03;2.10;;;12.20;99.90;;;;;;7394618;19;20146;-78
2023/03/16 12:00:46;;;;;;;3.73;2.30;;;12.30;99.90;;;;;;7395658;19;20162;-77
2023/03/16 12:03:31;;;;;;;2.97;1.83;;;12.30;99.90;;;;;;7393908;19;20218;-81
2023/03/16 12:06:23;;;;;;;3.67;2.10;;;12.50;99.90;;;;;;7396539;19;20135;-75
2023/03/16 12:09:19;;;;;;;2.67;2.20;;;12.70;99.90;;;;;;7392664;19;20139;-79
2023/03/16 12:11:57;;;;;;;3.50;2.17;;;12.50;99.90;;;;;;7394596;19;20703;-78
2023/03/16 12:14:36;;;;;;;2.57;1.60;;;12.60;99.90;;;;;;7399359;19;20142;-77
2023/03/16 12:17:15;;;;;;;2.37;1.77;;;12.80;99.90;;;;;;7396000;19;20442;-77
2023/03/16 12:20:04;;;;;;;3.47;2.05;;;12.80;99.90;;;;;;7393203;19;20141;-78
2023/03/16 12:22:48;;;;;;;3.53;1.97;;;12.80;99.90;;;;;;7392033;19;20185;-77
2023/03/16 12:25:24;;;;;;;3.27;2.70;;;12.70;99.90;;;;;;7400931;19;20134;-77
2023/03/16 12:27:56;;;;;;;3.60;2.40;;;12.80;99.90;;;;;;7392483;19;20151;-77
2023/03/16 12:30:44;;;;;;;3.47;2.17;;;12.80;99.90;;;;;;7393127;19;20163;-77
2023/03/16 12:33:19;;;;;;;2.40;1.70;;;12.70;99.90;;;;;;7394820;19;20135;-79
2023/03/16 12:35:51;;;;;;;4.03;1.90;;;12.80;99.90;;;;;;7393598;19;20639;-77
2023/03/16 12:38:43;;;;;;;3.45;2.00;;;12.80;99.90;;;;;;7393736;19;20138;-78
2023/03/16 12:41:33;;;;;;;3.08;2.00;;;12.70;99.90;;;;;;7393380;19;20484;-77
2023/03/16 12:44:31;;;;;;;3.58;2.10;;;12.90;99.90;;;;;;7390742;19;20133;-78
2023/03/16 12:47:20;;;;;;;2.20;1.67;;;13.00;99.90;;;;;;7397651;19;20222;-78
2023/03/16 12:49:46;;;;;;;4.43;2.40;;;12.70;99.90;;;;;;7393558;19;20156;-77
2023/03/16 12:52:13;;;;;;;3.27;2.10;;;12.90;99.90;;;;;;7390588;19;20166;-77
2023/03/16 12:55:05;;;;;;;5.40;2.05;;;13.10;99.90;;;;;;7392680;19;20160;-78
2023/03/16 12:57:31;;;;;;;3.75;1.88;;;12.90;99.90;;;;;;7393880;19;20607;-77
2023/03/16 13:00:00;;;;;;;2.57;1.90;;;12.70;99.90;;;;;;7391457;19;20620;-76
2023/03/16 13:02:31;;;;;;;3.47;1.70;;;12.80;99.90;;;;;;7395109;19;20154;-78
2023/03/16 13:05:07;;;;;;;2.75;1.95;;;13.00;99.90;;;;;;7388132;19;20181;-78
2023/03/16 13:07:34;;;;;;;2.67;1.98;;;13.10;99.90;;;;;;7390319;19;20146;-79